Portada
METAR-TAF:

METAR-TAF

Aeroports :

Quaqtaq, Quebec, Canadà

latitud: 61-03N, longitud: 069-38W, altitud: 30 m

Observació

L'informe es va fer fa 58 minuts, a les 17:00 UTC
Vent calma
Temperatura -24°C
Humitat 69%
Pressió 1029 hPa
Visibilitat: 24.1 km
Escasses núvols a una alçada de 1200 ft
Cel ennuvolat a una alçada de 25000 ft
cristalls de gel

METAR: CYHA 271700Z 00000KT 15SM IC FEW012 BKN250 M24/M28 A3039 RMK ST1CI5 ST TR SLP297

Hora: 12:58 (17:58 UTC)

Pronòstic

L'informe es va fer fa 3 hores i 20 minuts, a les 14:38 UTC
Pronòstic vàlid del 27 a les 15 UTC al 27 a les 22 UTC
Vent 3 kt amb direcció variable
Visibilitat: 10 km
Escasses núvols a una alçada de 3000 ft
Escasses núvols a una alçada de 25000 ft

TAF: CYHA 271438Z 2715/2722 VRB03KT P6SM FEW030 FEW250 RMK NXT FCST WILL BE ISSUED AT 281445Z

Observacions i pronòstics meteorològics de més de 4000 aeroports (METAR i TAF).

Les estacions disponibles són els punts grocs i vermells al mapa.

Posi el ratolí al punt desitjat per veure el nom de l'estació.

Feu clic per veure les observacions i els pronòstics meteorològics.

Per canviar el mapa: feu clic els botons verds amb una creu de color negre per apropar; al botó verd amb un guió per allunyar la imatge; o en les fletxes verdes per a mapes adjacents.


METAR-TAF: